Arsenal, Pennsylvania
Current Conditions -  °F | °C
As of 10:53 PM on Saturday 20 Dec 2014 (Local Time) from KAGC Reporting Station
Overcast Overcast  
Wind Chill: -2°   Ceiling: 2900
Heat Index: -2°   Visibility: 10mi
Dew Point: -7°   Wind: 0mph
Humidity: 69%   Direction: NA
Pressure: 30.24"   Gusts: NA
Location:  40.4738°N, 79.952°W
Report Text: KAGC 210353Z 00000KT 10SM OVC029 M02/M07 A3024 RMK AO2 SLP260 T10221072
Loading
Personal Weather Stations






























Interactive Weather Map New forecast layout! Learn more

10-Day Weather Forecast

Advertisements
Track Severe Weather on mobile